Time;durP1;ratioP1;P1;durP2;ratioP2;P2;SDS_P1;SDS_P2;PMS_P1;PMS_P2;Temp;Humidity;BMP_temperature;BMP_pressure;BME280_temperature;BME280_humidity;BME280_pressure;Samples;Min_cycle;Max_cycle;Signal;HPM_P1;HPM_P2
2023/12/19 00:01:32;;;;;;;1.17;0.90;;;7.40;99.90;;;;;;5011868;28;20054;-79
2023/12/19 00:07:40;;;;;;;3.05;1.30;;;7.30;99.90;;;;;;5033035;23;20061;-79
2023/12/19 00:10:07;;;;;;;1.40;1.10;;;7.20;99.90;;;;;;5023949;28;20050;-80
2023/12/19 00:12:34;;;;;;;1.52;1.13;;;7.20;99.90;;;;;;5017140;28;20413;-81
2023/12/19 00:15:01;;;;;;;4.25;1.63;;;7.20;99.90;;;;;;5025307;28;20056;-80
2023/12/19 00:17:28;;;;;;;2.08;1.20;;;7.10;99.90;;;;;;5018070;28;20103;-80
2023/12/19 00:19:56;;;;;;;2.35;1.58;;;7.10;99.90;;;;;;5001171;28;20054;-80
2023/12/19 00:22:24;;;;;;;2.25;1.23;;;7.00;99.90;;;;;;5018244;28;20057;-80
2023/12/19 00:24:51;;;;;;;1.77;1.27;;;7.00;99.90;;;;;;4992467;28;20093;-79
2023/12/19 00:27:18;;;;;;;1.90;1.40;;;7.00;99.90;;;;;;5016639;28;20054;-80
2023/12/19 00:29:45;;;;;;;1.85;1.20;;;7.00;99.90;;;;;;4993533;28;20454;-81
2023/12/19 00:32:11;;;;;;;1.55;1.00;;;7.00;99.90;;;;;;5000326;28;20081;-79
2023/12/19 00:34:38;;;;;;;1.30;1.20;;;7.00;99.90;;;;;;5013042;28;20145;-80
2023/12/19 00:37:05;;;;;;;2.13;1.13;;;7.10;99.90;;;;;;5017869;28;20226;-80
2023/12/19 00:39:31;;;;;;;1.42;1.05;;;7.10;99.90;;;;;;4996965;28;20140;-81
2023/12/19 00:41:58;;;;;;;2.08;1.20;;;7.10;99.90;;;;;;5013988;28;20046;-79
2023/12/19 00:44:25;;;;;;;2.20;1.30;;;7.10;99.90;;;;;;5012658;28;20454;-79
2023/12/19 00:46:52;;;;;;;1.00;0.82;;;7.10;99.90;;;;;;4997516;28;20062;-81
2023/12/19 00:49:18;;;;;;;1.33;1.20;;;7.10;99.90;;;;;;5011053;28;20047;-80
2023/12/19 00:51:45;;;;;;;1.10;1.00;;;7.10;99.90;;;;;;5018248;28;20046;-81
2023/12/19 00:54:12;;;;;;;1.33;1.02;;;7.10;99.90;;;;;;4995102;28;20077;-82
2023/12/19 00:56:42;;;;;;;2.05;1.48;;;7.20;99.90;;;;;;5017239;28;20133;-79
2023/12/19 00:59:09;;;;;;;2.10;1.20;;;7.20;99.90;;;;;;4993880;28;20068;-81
2023/12/19 01:01:35;;;;;;;2.97;1.38;;;7.20;99.90;;;;;;5016105;28;20457;-79
2023/12/19 01:04:04;;;;;;;1.42;1.20;;;7.20;99.90;;;;;;5000761;28;20057;-82
2023/12/19 01:06:31;;;;;;;2.83;1.15;;;7.20;99.90;;;;;;4996989;28;20056;-81
2023/12/19 01:08:58;;;;;;;1.98;1.48;;;7.20;99.90;;;;;;4998572;28;20092;-82
2023/12/19 01:11:25;;;;;;;2.25;1.30;;;7.20;99.90;;;;;;5011415;28;20046;-81
2023/12/19 01:13:51;;;;;;;1.60;1.20;;;7.20;99.90;;;;;;5003196;28;20286;-81
2023/12/19 01:16:18;;;;;;;1.60;1.20;;;7.20;99.90;;;;;;5012005;28;20560;-81
2023/12/19 01:18:45;;;;;;;1.55;1.30;;;7.20;99.90;;;;;;5022875;28;20093;-79
2023/12/19 01:21:11;;;;;;;3.47;1.30;;;7.20;99.90;;;;;;5001311;28;20058;-78
2023/12/19 01:23:38;;;;;;;2.47;1.30;;;7.20;99.90;;;;;;5001988;28;20128;-80
2023/12/19 01:26:05;;;;;;;2.70;1.55;;;7.30;99.90;;;;;;5006547;28;20094;-83
2023/12/19 01:28:42;;;;;;;1.42;1.00;;;7.30;99.90;;;;;;4999601;28;20050;-79
2023/12/19 01:31:08;;;;;;;1.92;1.23;;;7.30;99.90;;;;;;5011437;28;20104;-80
2023/12/19 01:33:35;;;;;;;2.65;1.52;;;7.30;99.90;;;;;;5010557;28;20085;-79
2023/12/19 01:36:03;;;;;;;2.55;1.25;;;7.30;99.90;;;;;;5009241;28;20062;-81
2023/12/19 01:38:29;;;;;;;2.22;1.48;;;7.30;99.90;;;;;;5010452;28;20101;-82
2023/12/19 01:40:56;;;;;;;1.40;1.27;;;7.30;99.90;;;;;;4998523;28;20046;-78
2023/12/19 01:43:23;;;;;;;1.50;0.90;;;7.30;99.90;;;;;;5009815;28;20046;-79
2023/12/19 01:45:51;;;;;;;2.08;1.27;;;7.30;99.90;;;;;;5002093;28;20065;-80
2023/12/19 01:48:19;;;;;;;1.50;1.20;;;7.30;99.90;;;;;;4996123;28;20414;-80
2023/12/19 01:50:47;;;;;;;1.58;1.30;;;7.30;99.90;;;;;;5014235;28;20077;-80
2023/12/19 01:53:15;;;;;;;2.60;1.50;;;7.20;99.90;;;;;;5007099;28;20130;-81
2023/12/19 01:55:42;;;;;;;1.30;1.20;;;7.20;99.90;;;;;;5020173;28;20477;-80
2023/12/19 01:58:10;;;;;;;2.13;1.45;;;7.20;99.90;;;;;;4997979;28;20130;-82
2023/12/19 02:00:37;;;;;;;1.85;1.48;;;7.10;99.90;;;;;;4997745;28;20045;-80
2023/12/19 02:03:05;;;;;;;1.40;1.10;;;7.10;99.90;;;;;;5004762;28;20042;-83
2023/12/19 02:05:37;;;;;;;2.03;1.05;;;7.10;99.90;;;;;;5017542;28;20053;-81
2023/12/19 02:08:05;;;;;;;2.38;1.42;;;7.10;99.90;;;;;;5012800;28;20057;-82
2023/12/19 02:10:31;;;;;;;1.60;1.30;;;7.10;99.90;;;;;;5017343;28;20074;-79
2023/12/19 02:12:59;;;;;;;1.92;1.30;;;7.10;99.90;;;;;;5021945;28;20137;-79
2023/12/19 02:15:26;;;;;;;2.33;1.58;;;7.10;99.90;;;;;;5000063;28;20049;-79
2023/12/19 02:17:52;;;;;;;4.22;1.20;;;7.10;99.90;;;;;;5023137;28;20115;-79
2023/12/19 02:20:19;;;;;;;4.38;1.20;;;7.00;99.90;;;;;;4993566;28;20050;-80
2023/12/19 02:22:50;;;;;;;1.73;1.30;;;7.00;99.90;;;;;;5004752;28;20071;-79
2023/12/19 02:25:19;;;;;;;2.28;1.33;;;7.00;99.90;;;;;;4999558;28;20082;-78
2023/12/19 02:27:46;;;;;;;1.90;1.13;;;7.00;99.90;;;;;;5021050;28;20115;-81
2023/12/19 02:30:13;;;;;;;1.33;1.23;;;7.00;99.90;;;;;;5008156;28;20042;-79
2023/12/19 02:32:41;;;;;;;1.80;1.15;;;7.00;99.90;;;;;;5010645;28;20046;-80
2023/12/19 02:35:08;;;;;;;2.30;1.10;;;7.00;99.90;;;;;;5014458;28;20104;-78
2023/12/19 02:37:35;;;;;;;1.98;1.35;;;7.00;99.90;;;;;;5004606;28;20104;-78
2023/12/19 02:40:02;;;;;;;1.55;1.27;;;7.00;99.90;;;;;;5002856;28;20091;-82
2023/12/19 02:42:28;;;;;;;1.48;1.13;;;7.10;99.90;;;;;;4998574;28;20042;-81
2023/12/19 02:44:55;;;;;;;1.27;1.05;;;7.10;99.90;;;;;;5001841;28;20485;-79
2023/12/19 02:47:22;;;;;;;2.92;1.48;;;7.10;99.90;;;;;;5013766;28;20108;-82
2023/12/19 02:49:49;;;;;;;1.95;1.02;;;7.20;99.90;;;;;;5019384;28;20045;-79
2023/12/19 02:52:15;;;;;;;3.28;1.10;;;7.20;99.90;;;;;;5011704;28;20046;-79
2023/12/19 02:54:42;;;;;;;1.38;1.27;;;7.20;99.90;;;;;;5012710;28;20475;-81
2023/12/19 02:57:09;;;;;;;1.75;1.17;;;7.10;99.90;;;;;;5010950;28;20042;-81
2023/12/19 02:59:35;;;;;;;1.60;1.25;;;7.10;99.90;;;;;;5021230;28;20046;-80
2023/12/19 03:02:02;;;;;;;1.48;1.00;;;7.10;99.90;;;;;;5009877;28;20050;-80
2023/12/19 03:04:29;;;;;;;1.90;1.25;;;7.10;99.90;;;;;;5018350;28;20129;-80
2023/12/19 03:06:56;;;;;;;1.85;1.20;;;7.00;99.90;;;;;;5014043;28;20092;-80
2023/12/19 03:09:22;;;;;;;1.75;1.40;;;7.00;99.90;;;;;;5022129;28;20050;-80
2023/12/19 03:12:06;;;;;;;3.05;1.10;;;7.00;99.90;;;;;;5013326;28;20052;-80
2023/12/19 03:14:34;;;;;;;2.03;0.98;;;7.00;99.90;;;;;;5015548;28;20050;-81
2023/12/19 03:17:02;;;;;;;1.42;1.05;;;7.00;99.90;;;;;;5002298;28;20054;-81
2023/12/19 03:19:29;;;;;;;2.40;1.27;;;7.00;99.90;;;;;;5013081;28;20659;-80
2023/12/19 03:21:56;;;;;;;1.50;1.00;;;7.00;99.90;;;;;;5005761;28;20509;-80
2023/12/19 03:24:23;;;;;;;2.22;1.05;;;7.00;99.90;;;;;;4994305;28;20038;-81
2023/12/19 03:26:50;;;;;;;1.27;1.10;;;7.10;99.90;;;;;;5004521;28;20045;-79
2023/12/19 03:29:17;;;;;;;2.00;0.80;;;7.10;99.90;;;;;;4997729;28;20042;-79
2023/12/19 03:31:43;;;;;;;0.98;0.90;;;7.10;99.90;;;;;;5012901;28;20409;-79
2023/12/19 03:34:10;;;;;;;1.40;1.00;;;7.10;99.90;;;;;;5008516;28;20406;-80
2023/12/19 03:36:37;;;;;;;1.40;1.05;;;7.10;99.90;;;;;;5005088;28;20050;-78
2023/12/19 03:39:04;;;;;;;1.95;1.10;;;7.20;99.90;;;;;;5000975;28;20045;-81
2023/12/19 03:41:31;;;;;;;1.38;0.70;;;7.20;99.90;;;;;;5002291;28;20426;-78
2023/12/19 03:43:58;;;;;;;2.92;1.10;;;7.20;99.90;;;;;;5022783;28;20042;-81
2023/12/19 03:46:24;;;;;;;1.55;0.90;;;7.20;99.90;;;;;;5022449;28;20042;-78
2023/12/19 03:48:51;;;;;;;1.00;0.95;;;7.20;99.90;;;;;;5018192;28;20041;-79
2023/12/19 03:51:18;;;;;;;1.35;0.98;;;7.20;99.90;;;;;;5020034;28;20129;-80
2023/12/19 03:53:45;;;;;;;0.88;0.80;;;7.20;99.90;;;;;;5024983;28;20057;-79
2023/12/19 03:56:11;;;;;;;2.47;0.95;;;7.20;99.90;;;;;;5021894;28;20065;-78
2023/12/19 03:58:39;;;;;;;1.38;1.10;;;7.20;99.90;;;;;;5017646;28;20113;-78
2023/12/19 04:01:06;;;;;;;1.77;1.08;;;7.20;99.90;;;;;;5018005;28;20049;-78
2023/12/19 04:03:33;;;;;;;1.42;1.10;;;7.20;99.90;;;;;;5026506;28;20060;-79
2023/12/19 04:06:00;;;;;;;1.98;1.05;;;7.20;99.90;;;;;;5016854;28;20096;-79
2023/12/19 04:08:26;;;;;;;1.90;1.08;;;7.20;99.90;;;;;;5023459;28;20043;-78
2023/12/19 04:10:53;;;;;;;1.52;1.20;;;7.20;99.90;;;;;;5016883;28;20053;-79
2023/12/19 04:13:20;;;;;;;1.92;1.20;;;7.20;99.90;;;;;;5013828;28;20077;-80
2023/12/19 04:15:47;;;;;;;1.88;1.20;;;7.10;99.90;;;;;;5013797;28;20128;-80
2023/12/19 04:18:14;;;;;;;1.98;1.30;;;7.10;99.90;;;;;;5010505;28;20050;-81
2023/12/19 04:20:41;;;;;;;1.85;1.20;;;7.00;99.90;;;;;;5011997;28;20053;-82
2023/12/19 04:23:08;;;;;;;1.25;1.08;;;7.00;99.90;;;;;;4997500;28;20046;-78
2023/12/19 04:25:35;;;;;;;2.30;1.23;;;6.90;99.90;;;;;;5006384;28;20042;-81
2023/12/19 04:28:02;;;;;;;2.70;1.48;;;6.80;99.90;;;;;;5021504;28;20046;-79
2023/12/19 04:30:29;;;;;;;4.93;1.60;;;6.80;99.90;;;;;;5007931;28;20048;-78
2023/12/19 04:32:56;;;;;;;1.88;1.40;;;6.70;99.90;;;;;;5001052;28;20078;-79
2023/12/19 04:35:22;;;;;;;3.70;2.05;;;6.70;99.90;;;;;;5023933;28;20049;-79
2023/12/19 04:37:49;;;;;;;2.53;1.35;;;6.60;99.90;;;;;;5016850;28;20049;-78
2023/12/19 04:40:16;;;;;;;1.75;1.30;;;6.60;99.90;;;;;;5005275;28;20053;-79
2023/12/19 04:42:43;;;;;;;2.08;1.73;;;6.60;99.90;;;;;;5016750;28;20061;-78
2023/12/19 04:45:10;;;;;;;3.55;1.70;;;6.50;99.90;;;;;;5021698;28;20069;-78
2023/12/19 04:47:36;;;;;;;7.00;1.67;;;6.50;99.90;;;;;;5016449;28;20043;-79
2023/12/19 04:50:04;;;;;;;2.20;1.45;;;6.50;99.90;;;;;;5019807;28;20048;-80
2023/12/19 04:52:30;;;;;;;2.38;1.50;;;6.50;99.90;;;;;;5015438;28;20637;-80
2023/12/19 04:54:57;;;;;;;2.42;1.58;;;6.40;99.90;;;;;;5017073;28;20081;-81
2023/12/19 04:57:24;;;;;;;2.00;1.60;;;6.40;99.90;;;;;;4994052;28;20065;-81
2023/12/19 04:59:51;;;;;;;2.30;1.90;;;6.40;99.90;;;;;;4997269;28;20056;-81
2023/12/19 05:02:17;;;;;;;3.78;2.03;;;6.30;99.90;;;;;;5011385;28;20057;-81
2023/12/19 05:04:44;;;;;;;3.35;2.17;;;6.30;99.90;;;;;;5012287;28;20054;-80
2023/12/19 05:07:11;;;;;;;3.08;2.03;;;6.20;99.90;;;;;;4992689;28;20422;-80
2023/12/19 05:09:38;;;;;;;3.55;2.20;;;6.20;99.90;;;;;;4998642;28;20053;-80
2023/12/19 05:12:04;;;;;;;3.60;2.33;;;6.10;99.90;;;;;;5015695;28;20051;-80
2023/12/19 05:14:31;;;;;;;4.35;2.35;;;6.00;99.90;;;;;;5008440;28;20046;-79
2023/12/19 05:16:59;;;;;;;4.07;2.60;;;5.90;99.90;;;;;;5014558;28;20045;-81
2023/12/19 05:19:26;;;;;;;4.20;2.70;;;5.90;99.90;;;;;;5006785;28;20093;-80
2023/12/19 05:21:53;;;;;;;4.63;3.10;;;5.70;99.90;;;;;;4995565;28;20318;-80
2023/12/19 05:24:20;;;;;;;4.70;2.95;;;5.60;99.90;;;;;;5006738;28;20038;-81
2023/12/19 05:26:46;;;;;;;3.92;2.70;;;5.50;99.90;;;;;;5017815;28;20073;-80
2023/12/19 05:29:13;;;;;;;3.28;2.30;;;5.50;99.90;;;;;;5011777;28;20128;-80
2023/12/19 05:31:40;;;;;;;4.30;2.58;;;5.40;99.90;;;;;;5015903;28;20046;-81
2023/12/19 05:34:07;;;;;;;2.95;2.15;;;5.40;99.90;;;;;;5001041;28;20045;-80
2023/12/19 05:36:34;;;;;;;2.92;2.03;;;5.40;99.90;;;;;;5013360;28;20450;-79
2023/12/19 05:39:06;;;;;;;2.42;1.75;;;5.30;99.90;;;;;;4989089;28;20053;-81
2023/12/19 05:41:33;;;;;;;2.72;1.98;;;5.30;99.90;;;;;;5013900;28;20058;-79
2023/12/19 05:44:00;;;;;;;4.15;2.25;;;5.30;99.90;;;;;;5016069;28;20072;-80
2023/12/19 05:46:28;;;;;;;2.03;1.60;;;5.30;99.90;;;;;;5009462;28;20054;-79
2023/12/19 05:48:56;;;;;;;2.47;1.77;;;5.30;99.90;;;;;;5014185;28;20370;-81
2023/12/19 05:51:23;;;;;;;3.38;1.90;;;5.30;99.90;;;;;;4990655;28;20046;-80
2023/12/19 05:53:50;;;;;;;2.47;1.67;;;5.40;99.90;;;;;;5019525;28;20049;-80
2023/12/19 05:56:17;;;;;;;2.65;1.80;;;5.40;99.90;;;;;;4995688;28;20041;-79
2023/12/19 05:58:46;;;;;;;2.20;1.55;;;5.40;99.90;;;;;;5015146;28;20470;-80
2023/12/19 06:01:13;;;;;;;3.70;1.63;;;5.40;99.90;;;;;;5006394;28;20046;-79
2023/12/19 06:03:40;;;;;;;4.93;1.40;;;5.40;99.90;;;;;;5014985;28;20505;-81
2023/12/19 06:06:07;;;;;;;3.03;1.65;;;5.40;99.90;;;;;;5000957;28;20069;-82
2023/12/19 06:08:35;;;;;;;1.73;1.63;;;5.40;99.90;;;;;;4997583;28;20558;-79
2023/12/19 06:11:02;;;;;;;2.67;1.80;;;5.50;99.90;;;;;;5010320;28;20095;-81
2023/12/19 06:13:29;;;;;;;4.80;2.53;;;5.40;99.90;;;;;;5011378;28;20077;-81
2023/12/19 06:15:56;;;;;;;8.43;4.15;;;5.40;99.90;;;;;;5015197;28;20052;-79
2023/12/19 06:18:23;;;;;;;5.95;2.47;;;5.40;99.90;;;;;;4996625;28;20046;-79
2023/12/19 06:20:51;;;;;;;2.95;2.00;;;5.40;99.90;;;;;;5012315;28;20128;-80
2023/12/19 06:23:17;;;;;;;2.95;2.30;;;5.40;99.90;;;;;;5009829;28;20192;-79
2023/12/19 06:25:44;;;;;;;4.10;2.30;;;5.40;99.90;;;;;;5002570;28;20121;-81
2023/12/19 06:28:11;;;;;;;2.05;1.17;;;5.50;99.90;;;;;;4990107;28;20042;-79
2023/12/19 06:30:37;;;;;;;2.67;1.52;;;5.50;99.90;;;;;;5016982;28;20051;-80
2023/12/19 06:33:06;;;;;;;1.88;1.48;;;5.50;99.90;;;;;;5008851;28;20077;-79
2023/12/19 06:35:33;;;;;;;1.63;1.27;;;5.50;99.90;;;;;;5014141;28;20517;-78
2023/12/19 06:37:59;;;;;;;1.83;1.33;;;5.60;99.90;;;;;;4992635;28;20069;-79
2023/12/19 06:40:26;;;;;;;2.30;1.50;;;5.60;99.90;;;;;;5014267;28;20049;-81
2023/12/19 06:42:53;;;;;;;1.92;1.48;;;5.70;99.90;;;;;;5013918;28;20057;-81
2023/12/19 06:45:21;;;;;;;3.97;1.95;;;5.60;99.90;;;;;;5015074;28;20046;-79
2023/12/19 06:47:48;;;;;;;1.65;0.90;;;5.70;99.90;;;;;;5022024;28;20073;-78
2023/12/19 06:50:16;;;;;;;5.05;1.50;;;5.70;99.90;;;;;;4996135;28;20048;-81
2023/12/19 06:52:44;;;;;;;2.07;1.40;;;5.70;99.90;;;;;;5017309;28;20050;-80
2023/12/19 06:55:14;;;;;;;2.17;1.50;;;5.70;99.90;;;;;;5011684;28;20106;-81
2023/12/19 06:57:40;;;;;;;3.45;1.73;;;5.70;99.90;;;;;;5014501;28;20581;-80
2023/12/19 07:00:07;;;;;;;4.10;1.52;;;5.70;99.90;;;;;;5014779;28;20046;-81
2023/12/19 07:02:36;;;;;;;2.38;1.73;;;5.70;99.90;;;;;;5017808;28;20157;-78
2023/12/19 07:05:04;;;;;;;2.08;1.52;;;5.70;99.90;;;;;;4997342;28;20047;-81
2023/12/19 07:07:31;;;;;;;2.63;1.40;;;5.60;99.90;;;;;;5002228;28;20593;-80
2023/12/19 07:09:58;;;;;;;2.20;1.38;;;5.70;99.90;;;;;;5014203;28;20092;-81
2023/12/19 07:12:25;;;;;;;2.90;2.20;;;5.70;99.90;;;;;;5017113;28;20548;-79
2023/12/19 07:14:52;;;;;;;2.00;1.10;;;5.80;99.90;;;;;;5012325;28;20053;-81
2023/12/19 07:17:18;;;;;;;2.47;1.30;;;5.80;99.90;;;;;;5016845;28;20050;-79
2023/12/19 07:19:46;;;;;;;2.38;1.58;;;5.90;99.90;;;;;;5020312;28;20356;-81
2023/12/19 07:22:13;;;;;;;1.67;1.20;;;5.90;99.90;;;;;;4996408;28;20105;-80
2023/12/19 07:24:40;;;;;;;1.77;1.30;;;5.90;99.90;;;;;;5016285;28;20100;-81
2023/12/19 07:27:08;;;;;;;2.00;1.15;;;6.00;99.90;;;;;;4999509;28;20104;-80
2023/12/19 07:29:38;;;;;;;3.30;1.50;;;6.00;99.90;;;;;;5018207;28;20052;-79
2023/12/19 07:32:06;;;;;;;2.25;1.20;;;6.00;99.90;;;;;;5017138;28;20097;-81
2023/12/19 07:34:32;;;;;;;1.92;1.30;;;6.00;99.90;;;;;;5021766;28;20116;-80
2023/12/19 07:36:59;;;;;;;1.27;1.15;;;6.00;99.90;;;;;;5012571;28;20054;-81
2023/12/19 07:39:26;;;;;;;2.42;1.25;;;6.00;99.90;;;;;;5014163;28;20053;-82
2023/12/19 07:41:53;;;;;;;1.08;0.95;;;6.10;99.90;;;;;;5013433;28;20101;-81
2023/12/19 07:44:21;;;;;;;0.95;0.77;;;6.20;99.90;;;;;;5019800;28;20038;-80
2023/12/19 07:46:47;;;;;;;1.58;1.33;;;6.30;99.90;;;;;;5029949;23;20041;-77
2023/12/19 07:49:14;;;;;;;1.42;1.00;;;6.30;99.90;;;;;;5011474;28;20134;-79
2023/12/19 07:51:41;;;;;;;1.25;0.98;;;6.40;99.90;;;;;;5010051;28;20050;-77
2023/12/19 07:54:08;;;;;;;1.60;1.20;;;6.40;99.90;;;;;;5014165;28;20084;-77
2023/12/19 07:56:41;;;;;;;2.67;1.58;;;6.50;99.90;;;;;;5009898;28;20054;-78
2023/12/19 07:59:07;;;;;;;5.90;1.60;;;6.50;99.90;;;;;;5008647;28;20049;-79
2023/12/19 08:01:34;;;;;;;1.45;1.10;;;6.60;99.90;;;;;;5009143;28;20069;-77
2023/12/19 08:04:01;;;;;;;2.85;1.35;;;6.70;99.90;;;;;;5015959;28;20046;-79
2023/12/19 08:06:28;;;;;;;3.53;1.15;;;6.70;99.90;;;;;;5010155;28;20042;-77
2023/12/19 08:08:56;;;;;;;2.50;1.50;;;6.70;99.90;;;;;;5024228;28;20050;-79
2023/12/19 08:11:23;;;;;;;2.13;1.30;;;6.80;99.90;;;;;;5008905;28;20544;-77
2023/12/19 08:13:50;;;;;;;2.17;1.40;;;6.80;99.90;;;;;;5007851;28;20506;-78
2023/12/19 08:16:17;;;;;;;1.95;1.15;;;6.90;99.90;;;;;;5010786;28;20082;-78
2023/12/19 08:18:44;;;;;;;2.03;1.15;;;7.00;99.90;;;;;;5003556;28;20478;-77
2023/12/19 08:21:11;;;;;;;1.20;1.10;;;7.00;99.90;;;;;;5010179;28;20121;-79
2023/12/19 08:23:39;;;;;;;1.30;1.00;;;7.00;99.90;;;;;;5002762;28;20097;-77
2023/12/19 08:26:09;;;;;;;1.67;1.13;;;7.00;99.90;;;;;;5009117;28;20049;-77
2023/12/19 08:28:36;;;;;;;2.85;1.10;;;7.00;99.90;;;;;;5004374;28;20046;-78
2023/12/19 08:31:03;;;;;;;2.42;1.50;;;7.10;99.90;;;;;;5023172;28;20100;-77
2023/12/19 08:33:30;;;;;;;1.05;0.90;;;7.10;99.90;;;;;;5005755;28;20046;-79
2023/12/19 08:35:57;;;;;;;1.77;1.13;;;7.10;99.90;;;;;;5007057;28;20057;-76
2023/12/19 08:38:24;;;;;;;1.48;1.20;;;7.10;99.90;;;;;;5007026;28;20041;-79
2023/12/19 08:40:51;;;;;;;1.55;1.02;;;7.10;99.90;;;;;;5005067;28;20050;-79
2023/12/19 08:43:19;;;;;;;3.42;1.38;;;7.20;99.90;;;;;;5007702;28;20049;-78
2023/12/19 08:45:48;;;;;;;2.58;1.00;;;7.20;99.90;;;;;;5003974;28;20487;-78
2023/12/19 08:48:16;;;;;;;1.10;0.98;;;7.20;99.90;;;;;;5008453;28;20117;-79
2023/12/19 08:50:43;;;;;;;1.98;1.38;;;7.20;99.90;;;;;;5003315;28;20051;-76
2023/12/19 08:53:10;;;;;;;1.45;1.15;;;7.20;99.90;;;;;;5008509;28;20046;-77
2023/12/19 08:55:36;;;;;;;1.67;1.33;;;7.30;99.90;;;;;;5002689;28;20104;-78
2023/12/19 08:58:03;;;;;;;1.77;1.27;;;7.30;99.90;;;;;;5011285;28;21046;-78
2023/12/19 09:00:30;;;;;;;2.40;1.50;;;7.40;99.90;;;;;;5005927;28;20057;-78
2023/12/19 09:02:56;;;;;;;2.65;1.50;;;7.40;99.90;;;;;;5006937;28;20109;-78
2023/12/19 09:05:23;;;;;;;2.50;1.30;;;7.40;99.90;;;;;;5005397;28;20125;-77
2023/12/19 09:07:50;;;;;;;2.45;1.30;;;7.40;99.90;;;;;;5008676;28;20050;-76
2023/12/19 09:10:17;;;;;;;2.00;1.30;;;7.40;99.90;;;;;;5007230;28;20046;-78
2023/12/19 09:12:44;;;;;;;3.00;1.20;;;7.50;99.90;;;;;;5005392;28;20410;-78
2023/12/19 09:15:12;;;;;;;1.35;1.02;;;7.50;99.90;;;;;;5006218;28;20562;-78
2023/12/19 09:17:39;;;;;;;1.55;1.13;;;7.50;99.90;;;;;;5005060;28;20085;-78
2023/12/19 09:20:07;;;;;;;1.52;1.02;;;7.50;99.90;;;;;;5006282;28;20120;-78
2023/12/19 09:22:35;;;;;;;1.55;1.45;;;7.50;99.90;;;;;;5004109;28;20054;-77
2023/12/19 09:25:02;;;;;;;2.10;1.50;;;7.50;99.90;;;;;;5008843;28;20132;-79
2023/12/19 09:27:29;;;;;;;1.42;1.27;;;7.50;99.90;;;;;;5003630;28;20049;-78
2023/12/19 09:29:56;;;;;;;2.08;1.60;;;7.50;99.90;;;;;;5010827;28;20482;-77
2023/12/19 09:32:23;;;;;;;3.88;1.80;;;7.40;99.90;;;;;;5007578;28;20073;-76
2023/12/19 09:34:50;;;;;;;2.05;1.60;;;7.40;99.90;;;;;;5006889;28;20062;-77
2023/12/19 09:37:21;;;;;;;4.30;2.08;;;7.40;99.90;;;;;;5004852;28;20046;-79
2023/12/19 09:39:49;;;;;;;4.15;2.50;;;7.40;99.90;;;;;;5003736;28;20234;-79
2023/12/19 09:42:19;;;;;;;8.82;2.55;;;7.40;99.90;;;;;;5007705;28;20041;-78
2023/12/19 09:44:47;;;;;;;5.00;2.13;;;7.40;99.90;;;;;;5004990;28;20196;-78
2023/12/19 09:47:23;;;;;;;3.53;2.10;;;7.40;99.90;;;;;;5009126;28;20038;-78
2023/12/19 09:49:53;;;;;;;3.55;1.98;;;7.40;99.90;;;;;;5003054;28;20053;-78
2023/12/19 09:52:24;;;;;;;5.82;2.20;;;7.50;99.90;;;;;;5006631;28;20057;-78
2023/12/19 09:54:51;;;;;;;3.20;1.95;;;7.50;99.90;;;;;;5002681;28;20053;-79
2023/12/19 09:57:20;;;;;;;4.78;2.10;;;7.50;99.90;;;;;;5008109;28;20489;-76
2023/12/19 09:59:47;;;;;;;4.75;2.33;;;7.50;99.90;;;;;;5001598;28;20054;-78
2023/12/19 10:02:24;;;;;;;6.32;2.35;;;7.50;99.90;;;;;;5008354;28;20129;-78
2023/12/19 10:04:52;;;;;;;4.03;2.10;;;7.60;99.90;;;;;;5004008;28;20091;-77
2023/12/19 10:07:19;;;;;;;4.85;2.20;;;7.60;99.90;;;;;;5007891;28;20503;-78
2023/12/19 10:09:56;;;;;;;4.13;2.33;;;7.60;99.90;;;;;;5009440;28;20129;-77
2023/12/19 10:12:27;;;;;;;5.13;2.25;;;7.70;99.90;;;;;;5006148;28;20042;-77
2023/12/19 10:15:13;;;;;;;2.45;1.77;;;7.70;99.90;;;;;;5005427;28;20061;-77
2023/12/19 10:18:01;;;;;;;2.97;1.65;;;7.80;99.90;;;;;;5005577;28;20137;-77
2023/12/19 10:20:28;;;;;;;2.63;1.77;;;7.80;99.90;;;;;;5011764;28;20501;-78
2023/12/19 10:23:06;;;;;;;1.50;1.40;;;7.80;99.90;;;;;;5007242;28;20570;-79
2023/12/19 10:25:34;;;;;;;2.22;1.60;;;7.90;99.90;;;;;;5011264;28;20046;-78
2023/12/19 10:28:13;;;;;;;3.53;1.73;;;8.00;99.90;;;;;;5009912;28;20064;-79
2023/12/19 10:30:41;;;;;;;3.67;2.15;;;8.00;99.90;;;;;;5009130;28;20050;-79
2023/12/19 10:33:08;;;;;;;3.47;1.90;;;8.10;99.90;;;;;;5010174;28;20482;-79
2023/12/19 10:35:38;;;;;;;2.85;1.63;;;8.10;99.90;;;;;;5008021;28;20092;-76
2023/12/19 10:38:06;;;;;;;3.47;1.70;;;8.10;99.90;;;;;;5011213;28;20054;-79
2023/12/19 10:40:36;;;;;;;4.80;1.60;;;8.20;99.90;;;;;;5007346;28;20054;-79
2023/12/19 10:43:03;;;;;;;3.22;1.75;;;8.20;99.90;;;;;;5012538;28;20133;-76
2023/12/19 10:45:30;;;;;;;3.33;2.00;;;8.20;99.90;;;;;;5003876;28;20054;-78
2023/12/19 10:47:57;;;;;;;2.75;1.73;;;8.30;99.90;;;;;;5009320;28;20446;-79
2023/12/19 10:50:27;;;;;;;4.03;2.20;;;8.30;99.90;;;;;;5011509;28;20046;-77
2023/12/19 10:53:00;;;;;;;2.13;1.42;;;8.40;99.90;;;;;;5010043;28;20047;-78
2023/12/19 10:55:36;;;;;;;2.80;1.98;;;8.40;99.90;;;;;;5008559;28;20046;-77
2023/12/19 10:58:04;;;;;;;4.28;1.90;;;8.50;99.90;;;;;;5008194;28;20057;-77
2023/12/19 11:00:36;;;;;;;3.53;1.60;;;8.60;99.90;;;;;;5010931;28;20472;-78
2023/12/19 11:03:10;;;;;;;2.60;1.80;;;8.60;99.90;;;;;;5012551;28;20050;-79
2023/12/19 11:05:46;;;;;;;4.72;1.55;;;8.60;99.90;;;;;;5010504;28;20081;-79
2023/12/19 11:08:15;;;;;;;2.72;1.70;;;8.80;99.90;;;;;;5022667;28;20060;-77
2023/12/19 11:11:19;;;;;;;2.70;1.63;;;8.80;99.90;;;;;;5009221;28;20465;-77
2023/12/19 11:13:48;;;;;;;3.08;1.70;;;8.90;99.90;;;;;;5010330;28;20046;-78
2023/12/19 11:16:32;;;;;;;2.75;1.80;;;8.90;99.90;;;;;;5010001;28;20078;-79
2023/12/19 11:19:18;;;;;;;2.58;1.70;;;8.90;99.90;;;;;;5006865;28;20125;-79
2023/12/19 11:22:08;;;;;;;2.58;1.88;;;8.90;99.90;;;;;;5007370;28;20081;-78
2023/12/19 11:24:45;;;;;;;3.38;1.80;;;8.90;99.90;;;;;;5010845;28;20049;-78
2023/12/19 11:27:25;;;;;;;3.85;1.85;;;8.90;99.90;;;;;;5006546;28;20048;-79
2023/12/19 11:29:55;;;;;;;2.45;1.98;;;8.90;99.90;;;;;;5008098;28;20049;-78
2023/12/19 11:32:31;;;;;;;3.95;2.17;;;8.90;99.90;;;;;;5022745;28;20043;-77
2023/12/19 11:35:08;;;;;;;2.75;1.83;;;8.90;99.90;;;;;;5010459;28;20410;-77
2023/12/19 11:37:36;;;;;;;3.03;2.13;;;8.90;99.90;;;;;;5010247;28;20124;-78
2023/12/19 11:40:09;;;;;;;3.85;2.65;;;8.90;99.90;;;;;;5010266;28;20101;-78
2023/12/19 11:42:42;;;;;;;2.83;2.22;;;8.90;99.90;;;;;;5009528;28;20088;-79
2023/12/19 11:45:17;;;;;;;3.47;2.13;;;8.80;99.90;;;;;;5010586;28;20506;-76
2023/12/19 11:47:47;;;;;;;3.47;2.55;;;8.80;99.90;;;;;;5007630;28;20089;-79
2023/12/19 11:50:40;;;;;;;4.40;2.40;;;8.80;99.90;;;;;;5006678;28;20413;-77
2023/12/19 11:53:07;;;;;;;7.43;2.90;;;8.80;99.90;;;;;;5005903;28;20137;-78
2023/12/19 11:55:34;;;;;;;4.55;2.75;;;8.80;99.90;;;;;;5009475;28;20064;-79
2023/12/19 11:58:11;;;;;;;4.22;2.92;;;8.80;99.90;;;;;;5006098;28;20050;-77
2023/12/19 12:00:38;;;;;;;4.32;3.03;;;8.80;99.90;;;;;;5009116;28;20053;-79
2023/12/19 12:03:12;;;;;;;5.68;3.70;;;8.80;99.90;;;;;;5005833;28;20059;-79
2023/12/19 12:05:39;;;;;;;4.05;2.70;;;8.90;99.90;;;;;;5007024;28;20490;-79
2023/12/19 12:08:12;;;;;;;6.60;3.78;;;8.90;99.90;;;;;;5003892;28;20085;-77
2023/12/19 12:10:40;;;;;;;5.97;3.50;;;8.90;99.90;;;;;;5010940;28;20466;-78
2023/12/19 12:13:07;;;;;;;5.38;3.53;;;8.90;99.90;;;;;;5011219;28;20042;-77
2023/12/19 12:15:34;;;;;;;5.63;3.60;;;8.90;99.90;;;;;;5010219;28;20470;-77
2023/12/19 12:18:04;;;;;;;5.60;3.53;;;9.00;99.90;;;;;;5005883;28;20137;-76
2023/12/19 12:20:33;;;;;;;7.00;4.70;;;9.00;99.90;;;;;;5008909;28;20064;-78
2023/12/19 12:23:01;;;;;;;7.35;4.15;;;8.90;99.90;;;;;;5005821;28;20053;-76
2023/12/19 12:25:28;;;;;;;6.28;4.18;;;8.90;99.90;;;;;;5010929;28;20046;-77
2023/12/19 12:28:08;;;;;;;8.45;4.20;;;8.90;99.90;;;;;;5008341;28;20084;-79
2023/12/19 12:30:37;;;;;;;5.95;3.50;;;8.90;99.90;;;;;;5007326;28;20053;-78
2023/12/19 12:33:05;;;;;;;4.68;3.28;;;8.90;99.90;;;;;;5008010;28;20046;-77
2023/12/19 12:35:36;;;;;;;5.45;3.55;;;9.00;99.90;;;;;;5007003;28;20520;-78
2023/12/19 12:38:17;;;;;;;10.57;4.32;;;9.10;99.90;;;;;;5005352;28;20088;-77
2023/12/19 12:41:04;;;;;;;7.88;3.80;;;9.10;99.90;;;;;;5008038;28;20133;-79
2023/12/19 12:43:39;;;;;;;7.40;4.65;;;9.10;99.90;;;;;;5003098;28;20081;-77
2023/12/19 12:46:14;;;;;;;6.85;4.30;;;9.10;99.90;;;;;;5005552;28;20049;-78
2023/12/19 12:48:44;;;;;;;6.68;4.85;;;9.10;99.90;;;;;;5005970;28;20054;-78
2023/12/19 12:51:12;;;;;;;9.60;6.03;;;9.10;99.90;;;;;;5010949;28;20132;-79
2023/12/19 12:53:39;;;;;;;7.75;5.03;;;9.10;99.90;;;;;;5006371;28;20418;-77
2023/12/19 12:56:18;;;;;;;8.52;5.47;;;9.10;99.90;;;;;;5010918;28;20128;-77
2023/12/19 12:58:48;;;;;;;8.77;5.95;;;9.10;99.90;;;;;;5006864;28;20050;-79
2023/12/19 13:01:16;;;;;;;10.60;5.85;;;9.00;99.90;;;;;;5008671;28;20058;-78
2023/12/19 13:03:43;;;;;;;9.57;5.90;;;9.00;99.90;;;;;;5006746;28;20054;-79
2023/12/19 13:06:10;;;;;;;9.93;5.78;;;8.90;99.90;;;;;;5009546;28;20050;-78
2023/12/19 13:08:37;;;;;;;8.80;5.72;;;8.90;99.90;;;;;;5003847;28;20133;-79